createdAt,value
2018-02-22T00:02:24.339Z,28.03
2018-02-22T00:04:50.118Z,27.60
2018-02-22T00:07:15.930Z,28.43
2018-02-22T00:09:41.698Z,29.97
2018-02-22T00:12:07.470Z,28.50
2018-02-22T00:14:33.270Z,26.60
2018-02-22T00:16:59.043Z,25.60
2018-02-22T00:19:24.817Z,28.13
2018-02-22T00:21:50.596Z,27.33
2018-02-22T00:24:16.371Z,28.63
2018-02-22T00:26:42.183Z,28.80
2018-02-22T00:29:07.958Z,29.73
2018-02-22T00:31:33.778Z,28.20
2018-02-22T00:33:59.594Z,28.93
2018-02-22T00:36:25.378Z,29.87
2018-02-22T00:38:51.157Z,29.83
2018-02-22T00:41:16.947Z,28.40
2018-02-22T00:43:42.711Z,30.57
2018-02-22T00:46:08.494Z,28.40
2018-02-22T00:48:34.304Z,29.40
2018-02-22T00:51:00.070Z,30.07
2018-02-22T00:53:25.869Z,29.87
2018-02-22T00:55:51.930Z,28.90
2018-02-22T00:58:17.703Z,28.17
2018-02-22T01:00:43.479Z,30.30
2018-02-22T01:03:09.276Z,28.93
2018-02-22T01:05:35.055Z,28.67
2018-02-22T01:08:00.827Z,28.87
2018-02-22T01:10:26.610Z,29.10
2018-02-22T01:12:52.378Z,27.90
2018-02-22T01:15:18.166Z,29.80
2018-02-22T01:17:43.944Z,28.00
2018-02-22T01:20:09.731Z,30.00
2018-02-22T01:22:35.518Z,27.63
2018-02-22T01:25:01.297Z,27.70
2018-02-22T01:27:27.070Z,25.40
2018-02-22T01:29:52.869Z,29.60
2018-02-22T01:32:18.712Z,27.10
2018-02-22T01:34:44.485Z,27.40
2018-02-22T01:37:10.282Z,27.10
2018-02-22T01:39:36.050Z,28.70
2018-02-22T01:42:01.822Z,28.47
2018-02-22T01:44:27.607Z,30.43
2018-02-22T01:46:53.390Z,28.30
2018-02-22T01:49:19.486Z,29.77
2018-02-22T01:51:45.266Z,30.48
2018-02-22T01:54:11.035Z,25.97
2018-02-22T01:56:36.839Z,27.73
2018-02-22T01:59:02.623Z,26.03
2018-02-22T02:01:28.423Z,28.67
2018-02-22T02:03:54.226Z,26.70
2018-02-22T02:06:20.006Z,28.60
2018-02-22T02:08:45.832Z,28.37
2018-02-22T02:11:11.658Z,27.27
2018-02-22T02:13:37.450Z,28.20
2018-02-22T02:16:03.230Z,27.50
2018-02-22T02:18:29.011Z,27.90
2018-02-22T02:20:57.512Z,29.17
2018-02-22T02:23:23.285Z,28.58
2018-02-22T02:25:49.086Z,25.60
2018-02-22T02:28:14.878Z,28.77
2018-02-22T02:30:40.663Z,28.10
2018-02-22T02:33:06.498Z,28.47
2018-02-22T02:35:32.303Z,27.27
2018-02-22T02:37:58.090Z,28.30
2018-02-22T02:40:23.903Z,27.47
2018-02-22T02:42:49.694Z,27.07
2018-02-22T02:45:15.488Z,30.43
2018-02-22T02:47:41.293Z,29.87
2018-02-22T02:50:07.083Z,28.00
2018-02-22T02:52:32.891Z,28.30
2018-02-22T02:54:58.698Z,28.03
2018-02-22T02:57:24.486Z,28.70
2018-02-22T02:59:50.303Z,29.43
2018-02-22T03:02:16.695Z,27.80
2018-02-22T03:04:42.480Z,29.20
2018-02-22T03:07:08.286Z,29.10
2018-02-22T03:09:34.077Z,29.00
2018-02-22T03:11:59.862Z,28.60
2018-02-22T03:14:25.671Z,27.23
2018-02-22T03:16:51.456Z,29.23
2018-02-22T03:19:17.248Z,30.10
2018-02-22T03:21:43.348Z,27.37
2018-02-22T03:24:09.122Z,29.10
2018-02-22T03:26:34.894Z,30.60
2018-02-22T03:29:00.692Z,27.63
2018-02-22T03:31:26.469Z,27.87
2018-02-22T03:33:52.243Z,28.30
2018-02-22T03:36:18.074Z,26.07
2018-02-22T03:38:43.864Z,29.50
2018-02-22T03:41:09.654Z,27.43
2018-02-22T03:43:35.470Z,29.37
2018-02-22T03:46:01.317Z,29.00
2018-02-22T03:48:27.050Z,27.10
2018-02-22T03:50:52.854Z,27.60
2018-02-22T03:53:18.639Z,29.13
2018-02-22T03:55:44.419Z,28.97
2018-02-22T03:58:10.223Z,28.70
2018-02-22T04:00:36.008Z,28.37
2018-02-22T04:03:01.935Z,27.30
2018-02-22T04:05:27.750Z,29.17
2018-02-22T04:07:53.539Z,27.67
2018-02-22T04:10:19.322Z,26.50
2018-02-22T04:12:45.379Z,26.23
2018-02-22T04:15:11.162Z,26.23
2018-02-22T04:17:36.952Z,26.97
2018-02-22T04:20:03.774Z,28.50
2018-02-22T04:22:29.579Z,28.58
2018-02-22T04:24:55.355Z,30.70
2018-02-22T04:27:21.160Z,27.70
2018-02-22T04:29:46.934Z,28.07
2018-02-22T04:32:12.713Z,25.93
2018-02-22T04:34:38.713Z,27.93
2018-02-22T04:37:04.482Z,26.90
2018-02-22T04:39:30.265Z,27.63
2018-02-22T04:41:56.051Z,27.20
2018-02-22T04:44:21.846Z,27.80
2018-02-22T04:46:47.614Z,28.30
2018-02-22T04:49:13.422Z,26.30
2018-02-22T04:51:39.210Z,28.20
2018-02-22T04:54:04.991Z,28.10
2018-02-22T04:56:30.783Z,27.83
2018-02-22T04:58:56.558Z,28.30
2018-02-22T05:01:22.378Z,25.93
2018-02-22T05:03:48.179Z,27.90
2018-02-22T05:06:13.954Z,28.57
2018-02-22T05:08:39.726Z,28.37
2018-02-22T05:11:05.532Z,29.17
2018-02-22T05:13:31.302Z,28.37
2018-02-22T05:15:57.074Z,30.60
2018-02-22T05:18:23.238Z,30.47
2018-02-22T05:20:49.025Z,28.02
2018-02-22T05:23:14.810Z,29.23
2018-02-22T05:25:40.596Z,28.00
2018-02-22T05:28:06.375Z,29.30
2018-02-22T05:30:32.178Z,27.70
2018-02-22T05:32:57.950Z,29.13
2018-02-22T05:35:23.733Z,29.27
2018-02-22T05:37:49.530Z,30.10
2018-02-22T05:40:15.307Z,28.57
2018-02-22T05:42:41.079Z,27.20
2018-02-22T05:45:07.236Z,29.40
2018-02-22T05:47:33.024Z,27.67
2018-02-22T05:49:58.800Z,29.10
2018-02-22T05:52:24.695Z,29.10
2018-02-22T05:54:50.457Z,30.20
2018-02-22T05:57:16.234Z,29.03
2018-02-22T05:59:42.236Z,27.27
2018-02-22T06:02:08.014Z,29.37
2018-02-22T06:04:34.088Z,28.67
2018-02-22T06:07:00.218Z,29.67
2018-02-22T06:09:25.999Z,28.48
2018-02-22T06:11:51.805Z,25.83
2018-02-22T06:14:17.598Z,28.87
2018-02-22T06:16:43.375Z,26.13
2018-02-22T06:19:09.143Z,26.70
2018-02-22T06:21:34.949Z,27.10
2018-02-22T06:24:00.758Z,28.03
2018-02-22T06:26:26.543Z,26.60
2018-02-22T06:28:52.314Z,27.23
2018-02-22T06:31:18.114Z,28.23
2018-02-22T06:33:43.914Z,28.43
2018-02-22T06:36:09.703Z,30.10
2018-02-22T06:38:35.511Z,29.67
2018-02-22T06:41:01.304Z,28.97
2018-02-22T06:43:27.092Z,29.87
2018-02-22T06:45:52.915Z,30.10
2018-02-22T06:48:18.703Z,30.07
2018-02-22T06:50:44.486Z,29.90
2018-02-22T06:53:10.270Z,29.80
2018-02-22T06:55:36.054Z,29.43
2018-02-22T06:58:01.871Z,30.30
2018-02-22T07:00:27.671Z,31.77
2018-02-22T07:02:53.442Z,31.93
2018-02-22T07:05:19.245Z,32.37
2018-02-22T07:07:45.018Z,30.30
2018-02-22T07:10:10.803Z,30.57
2018-02-22T07:12:36.611Z,29.30
2018-02-22T07:15:02.422Z,30.43
2018-02-22T07:17:28.215Z,30.50
2018-02-22T07:19:54.031Z,32.60
2018-02-22T07:22:19.807Z,33.20
2018-02-22T07:24:46.000Z,31.23
2018-02-22T07:29:44.671Z,30.95
2018-02-22T07:32:10.464Z,30.97
2018-02-22T07:34:36.540Z,29.40
2018-02-22T07:37:02.367Z,28.90
2018-02-22T07:39:28.163Z,30.67
2018-02-22T07:41:54.006Z,30.80
2018-02-22T07:44:19.795Z,28.40
2018-02-22T07:46:45.588Z,30.37
2018-02-22T07:49:11.651Z,30.27
2018-02-22T07:51:37.418Z,30.65
2018-02-22T07:54:03.258Z,31.80
2018-02-22T07:56:29.307Z,30.50
2018-02-22T07:58:55.087Z,29.75
2018-02-22T08:01:20.865Z,39.07
2018-02-22T08:03:46.976Z,33.53
2018-02-22T08:06:12.769Z,31.33
2018-02-22T08:08:38.551Z,31.17
2018-02-22T08:11:04.531Z,28.47
2018-02-22T08:13:30.311Z,30.03
2018-02-22T08:15:56.086Z,29.97
2018-02-22T08:18:21.882Z,30.50
2018-02-22T08:20:47.678Z,29.63
2018-02-22T08:23:13.474Z,27.97
2018-02-22T08:25:39.270Z,27.30
2018-02-22T08:28:05.050Z,28.10
2018-02-22T08:30:30.978Z,29.97
2018-02-22T08:32:56.775Z,31.33
2018-02-22T08:35:22.571Z,27.40
2018-02-22T08:37:48.375Z,26.67
2018-02-22T08:40:14.153Z,26.50
2018-02-22T08:42:40.031Z,26.53
2018-02-22T08:45:05.842Z,24.57
2018-02-22T08:47:31.621Z,28.10
2018-02-22T08:49:57.431Z,26.03
2018-02-22T08:52:23.218Z,25.10
2018-02-22T08:54:49.010Z,26.07
2018-02-22T08:57:14.798Z,26.70
2018-02-22T08:59:40.574Z,25.00
2018-02-22T09:02:06.352Z,23.10
2018-02-22T09:04:32.156Z,23.27
2018-02-22T09:06:57.942Z,25.77
2018-02-22T09:09:23.715Z,25.47
2018-02-22T09:11:49.532Z,23.17
2018-02-22T09:14:15.328Z,25.97
2018-02-22T09:16:41.123Z,26.10
2018-02-22T09:19:06.947Z,24.23
2018-02-22T09:21:32.760Z,23.00
2018-02-22T09:23:58.570Z,25.63
2018-02-22T09:26:24.930Z,24.57
2018-02-22T09:28:50.756Z,25.42
2018-02-22T09:31:16.565Z,24.63
2018-02-22T09:33:42.555Z,23.80
2018-02-22T09:36:08.355Z,24.92
2018-02-22T09:38:34.138Z,23.37
2018-02-22T09:40:59.930Z,24.10
2018-02-22T09:43:25.723Z,24.03
2018-02-22T09:45:51.543Z,23.57
2018-02-22T09:48:17.318Z,24.17
2018-02-22T09:50:43.124Z,25.47
2018-02-22T09:53:08.930Z,24.40
2018-02-22T09:55:34.700Z,26.17
2018-02-22T09:58:00.485Z,25.40
2018-02-22T10:00:26.278Z,25.60
2018-02-22T10:02:59.294Z,24.80
2018-02-22T10:05:25.100Z,25.30
2018-02-22T10:07:50.879Z,26.57
2018-02-22T10:10:16.995Z,25.80
2018-02-22T10:12:42.774Z,25.20
2018-02-22T10:15:08.570Z,25.53
2018-02-22T10:17:34.359Z,25.60
2018-02-22T10:20:00.362Z,24.40
2018-02-22T10:22:26.171Z,24.00
2018-02-22T10:24:51.946Z,24.73
2018-02-22T10:27:17.834Z,25.10
2018-02-22T10:29:43.592Z,23.23
2018-02-22T10:32:09.391Z,24.97
2018-02-22T10:34:35.588Z,23.80
2018-02-22T10:37:01.366Z,26.45
2018-02-22T10:39:27.155Z,25.97
2018-02-22T10:41:53.112Z,26.77
2018-02-22T10:44:18.915Z,25.10
2018-02-22T10:46:44.694Z,26.80
2018-02-22T10:49:10.502Z,25.53
2018-02-22T10:51:36.275Z,26.30
2018-02-22T10:54:02.082Z,25.80
2018-02-22T10:56:27.883Z,27.13
2018-02-22T10:58:53.676Z,25.17
2018-02-22T11:01:25.590Z,24.87
2018-02-22T11:03:58.343Z,24.42
2018-02-22T11:06:24.149Z,24.87
2018-02-22T11:08:49.933Z,26.30
2018-02-22T11:11:15.747Z,26.63
2018-02-22T11:13:41.515Z,24.10
2018-02-22T11:16:07.305Z,25.00
2018-02-22T11:18:33.321Z,25.47
2018-02-22T11:20:59.100Z,23.55
2018-02-22T11:23:24.887Z,24.53
2018-02-22T11:25:50.673Z,24.27
2018-02-22T11:28:16.459Z,23.37
2018-02-22T11:30:42.267Z,21.17
2018-02-22T11:33:08.056Z,22.53
2018-02-22T11:35:33.830Z,20.00
2018-02-22T11:37:59.962Z,21.13
2018-02-22T11:40:25.751Z,22.10
2018-02-22T11:42:51.538Z,27.03
2018-02-22T11:45:17.347Z,22.70
2018-02-22T11:47:43.128Z,21.87
2018-02-22T11:50:08.919Z,22.20
2018-02-22T11:52:34.714Z,21.73
2018-02-22T11:55:01.108Z,20.03
2018-02-22T11:57:28.155Z,21.37
2018-02-22T11:59:54.594Z,22.05
2018-02-22T12:02:21.638Z,21.50
2018-02-22T12:04:50.515Z,21.33
2018-02-22T12:07:17.368Z,18.90
2018-02-22T12:09:43.904Z,21.40
2018-02-22T12:12:10.233Z,20.20
2018-02-22T12:14:38.922Z,21.85
2018-02-22T12:17:05.353Z,16.30
2018-02-22T12:19:31.606Z,17.85
2018-02-22T12:21:58.524Z,16.25
2018-02-22T12:24:25.058Z,17.30
2018-02-22T12:26:51.904Z,17.25
2018-02-22T12:29:18.650Z,19.45
2018-02-22T12:31:45.384Z,19.70
2018-02-22T12:34:11.714Z,20.40
2018-02-22T12:36:37.592Z,18.70
2018-02-22T12:39:03.435Z,18.90
2018-02-22T12:41:30.402Z,21.73
2018-02-22T12:43:56.323Z,20.40
2018-02-22T12:46:22.175Z,18.73
2018-02-22T12:48:48.014Z,19.47
2018-02-22T12:51:14.084Z,19.50
2018-02-22T12:53:40.364Z,19.87
2018-02-22T12:56:06.434Z,19.92
2018-02-22T12:58:32.477Z,18.55
2018-02-22T13:00:58.431Z,20.58
2018-02-22T13:03:24.275Z,22.27
2018-02-22T13:05:50.090Z,19.40
2018-02-22T13:08:15.891Z,21.17
2018-02-22T13:10:41.681Z,22.07
2018-02-22T13:13:07.761Z,20.70
2018-02-22T13:15:33.571Z,17.25
2018-02-22T13:17:59.371Z,23.10
2018-02-22T13:20:25.234Z,17.77
2018-02-22T13:22:51.210Z,17.80
2018-02-22T13:25:17.068Z,17.67
2018-02-22T13:27:42.892Z,19.30
2018-02-22T13:30:08.705Z,17.43
2018-02-22T13:32:47.076Z,26.23
2018-02-22T13:35:13.871Z,20.85
2018-02-22T13:40:47.166Z,22.70
2018-02-22T13:43:13.098Z,20.75
2018-02-22T13:45:39.630Z,44.90
2018-02-22T13:48:05.659Z,33.55
2018-02-22T13:50:43.973Z,31.25
2018-02-22T13:53:09.847Z,22.42
2018-02-22T13:55:35.741Z,23.53
2018-02-22T13:58:01.561Z,19.47
2018-02-22T14:00:39.858Z,31.97
2018-02-22T14:03:05.680Z,22.67
2018-02-22T14:05:31.527Z,19.57
2018-02-22T14:07:57.355Z,19.60
2018-02-22T14:10:23.218Z,19.50
2018-02-22T14:12:49.113Z,20.83
2018-02-22T14:15:15.534Z,19.33
2018-02-22T14:17:41.347Z,20.25
2018-02-22T14:20:07.181Z,20.77
2018-02-22T14:22:33.024Z,20.30
2018-02-22T14:24:58.819Z,20.87
2018-02-22T14:27:24.609Z,18.90
2018-02-22T14:29:50.429Z,20.73
2018-02-22T14:32:16.207Z,18.53
2018-02-22T14:34:42.368Z,22.07
2018-02-22T14:37:08.164Z,19.35
2018-02-22T14:39:33.960Z,17.43
2018-02-22T14:41:59.846Z,19.40
2018-02-22T14:44:25.694Z,22.00
2018-02-22T14:46:51.461Z,20.03
2018-02-22T14:49:17.556Z,24.07
2018-02-22T14:51:43.351Z,21.95
2018-02-22T14:54:09.673Z,19.10
2018-02-22T14:56:35.458Z,51.92
2018-02-22T14:59:01.243Z,35.33
2018-02-22T15:01:27.114Z,24.57
2018-02-22T15:03:52.866Z,25.83
2018-02-22T15:06:18.976Z,27.87
2018-02-22T15:08:45.816Z,24.87
2018-02-22T15:11:12.556Z,22.60
2018-02-22T15:13:39.499Z,21.23
2018-02-22T15:16:05.347Z,20.92
2018-02-22T15:18:31.133Z,24.47
2018-02-22T15:20:56.915Z,24.57
2018-02-22T15:23:22.790Z,20.57
2018-02-22T15:25:48.616Z,23.40
2018-02-22T15:28:14.415Z,23.47
2018-02-22T15:30:40.207Z,22.67
2018-02-22T15:33:05.983Z,25.03
2018-02-22T15:35:32.380Z,25.20
2018-02-22T15:37:58.227Z,22.58
2018-02-22T15:40:24.022Z,25.80
2018-02-22T15:42:49.900Z,24.57
2018-02-22T15:45:15.719Z,19.90
2018-02-22T15:47:41.503Z,27.10
2018-02-22T15:50:07.299Z,24.30
2018-02-22T15:52:33.125Z,25.00
2018-02-22T15:54:58.967Z,22.90
2018-02-22T15:57:24.716Z,24.00
2018-02-22T15:59:50.542Z,24.77
2018-02-22T16:02:16.374Z,24.60
2018-02-22T16:04:49.196Z,26.27
2018-02-22T16:07:15.000Z,53.28
2018-02-22T16:09:40.778Z,33.33
2018-02-22T16:12:06.567Z,26.90
2018-02-22T16:14:32.392Z,35.87
2018-02-22T16:16:58.162Z,30.87
2018-02-22T16:19:23.942Z,29.43
2018-02-22T16:21:49.724Z,18.10
2018-02-22T16:24:15.531Z,21.50
2018-02-22T16:26:41.307Z,21.27
2018-02-22T16:29:07.132Z,21.17
2018-02-22T16:31:32.934Z,21.80
2018-02-22T16:33:58.755Z,24.43
2018-02-22T16:36:24.537Z,22.33
2018-02-22T16:38:50.318Z,23.23
2018-02-22T16:41:16.109Z,20.50
2018-02-22T16:43:41.891Z,21.33
2018-02-22T16:46:07.715Z,21.00
2018-02-22T16:48:33.515Z,23.07
2018-02-22T16:50:59.311Z,21.43
2018-02-22T16:53:25.118Z,21.23
2018-02-22T16:55:50.908Z,21.10
2018-02-22T16:58:16.722Z,21.17
2018-02-22T17:00:42.772Z,20.50
2018-02-22T17:03:15.545Z,23.00
2018-02-22T17:05:41.330Z,23.42
2018-02-22T17:08:07.136Z,23.10
2018-02-22T17:10:32.938Z,21.83
2018-02-22T17:12:59.127Z,21.37
2018-02-22T17:15:24.936Z,22.90
2018-02-22T17:17:50.716Z,22.97
2018-02-22T17:20:16.505Z,23.80
2018-02-22T17:22:42.314Z,24.57
2018-02-22T17:25:08.082Z,26.83
2018-02-22T17:27:39.775Z,23.00
2018-02-22T17:30:11.733Z,26.95
2018-02-22T17:32:37.539Z,24.63
2018-02-22T17:35:04.319Z,25.63
2018-02-22T17:37:32.095Z,24.17
2018-02-22T17:40:02.700Z,20.45
2018-02-22T17:42:39.246Z,24.08
2018-02-22T17:45:05.215Z,20.62
2018-02-22T17:47:31.026Z,20.50
2018-02-22T17:49:56.806Z,14.90
2018-02-22T17:52:22.613Z,14.23
2018-02-22T17:54:48.472Z,12.73
2018-02-22T17:57:14.299Z,13.50
2018-02-22T17:59:40.099Z,13.07
2018-02-22T18:02:05.891Z,14.20
2018-02-22T18:04:31.677Z,11.40
2018-02-22T18:06:57.502Z,11.60
2018-02-22T18:09:23.321Z,11.60
2018-02-22T18:11:49.129Z,10.27
2018-02-22T18:14:15.207Z,10.80
2018-02-22T18:16:41.052Z,10.10
2018-02-22T18:19:06.862Z,11.57
2018-02-22T18:21:32.629Z,9.97
2018-02-22T18:23:58.412Z,10.63
2018-02-22T18:26:24.203Z,11.10
2018-02-22T18:28:50.034Z,11.50
2018-02-22T18:31:15.823Z,11.33
2018-02-22T18:33:41.855Z,11.43
2018-02-22T18:36:07.664Z,12.10
2018-02-22T18:38:39.507Z,11.83
2018-02-22T18:41:05.349Z,10.60
2018-02-22T18:43:41.074Z,10.10
2018-02-22T18:46:06.858Z,10.80
2018-02-22T18:48:32.759Z,10.70
2018-02-22T18:50:58.675Z,10.20
2018-02-22T18:53:24.466Z,10.13
2018-02-22T18:55:50.604Z,9.07
2018-02-22T18:58:16.395Z,10.25
2018-02-22T19:00:42.195Z,10.60
2018-02-22T19:03:08.005Z,10.17
2018-02-22T19:05:33.800Z,8.87
2018-02-22T19:07:59.603Z,9.27
2018-02-22T19:10:25.427Z,8.40
2018-02-22T19:12:51.234Z,9.53
2018-02-22T19:15:17.036Z,8.20
2018-02-22T19:17:42.849Z,9.43
2018-02-22T19:20:08.690Z,7.60
2018-02-22T19:22:34.571Z,7.67
2018-02-22T19:25:00.351Z,8.03
2018-02-22T19:27:26.144Z,7.80
2018-02-22T19:29:51.935Z,9.10
2018-02-22T19:32:17.721Z,8.30
2018-02-22T19:34:43.597Z,7.00
2018-02-22T19:37:09.425Z,7.70
2018-02-22T19:39:35.213Z,8.17
2018-02-22T19:42:01.016Z,7.83
2018-02-22T19:44:27.069Z,7.77
2018-02-22T19:46:52.855Z,7.68
2018-02-22T19:49:18.643Z,8.00
2018-02-22T19:51:44.439Z,8.60
2018-02-22T19:54:10.227Z,8.30
2018-02-22T19:56:36.015Z,7.30
2018-02-22T19:59:01.859Z,7.63
2018-02-22T20:01:27.672Z,7.87
2018-02-22T20:03:53.459Z,8.67
2018-02-22T20:06:19.290Z,7.63
2018-02-22T20:08:45.099Z,8.37
2018-02-22T20:11:11.779Z,7.87
2018-02-22T20:13:37.965Z,6.87
2018-02-22T20:16:03.786Z,7.57
2018-02-22T20:18:29.614Z,7.03
2018-02-22T20:20:55.777Z,7.13
2018-02-22T20:23:21.559Z,7.78
2018-02-22T20:25:47.364Z,7.57
2018-02-22T20:28:13.227Z,7.17
2018-02-22T20:30:39.030Z,6.70
2018-02-22T20:33:06.827Z,7.30
2018-02-22T20:35:32.615Z,7.90
2018-02-22T20:37:58.516Z,6.90
2018-02-22T20:40:25.168Z,6.53
2018-02-22T20:42:51.980Z,7.25
2018-02-22T20:45:17.903Z,8.20
2018-02-22T20:47:43.756Z,6.70
2018-02-22T20:50:11.507Z,6.77
2018-02-22T20:52:39.138Z,7.47
2018-02-22T20:55:07.924Z,7.07
2018-02-22T20:57:33.779Z,7.75
2018-02-22T20:59:59.843Z,6.40
2018-02-22T21:02:27.236Z,7.45
2018-02-22T21:04:53.305Z,7.20
2018-02-22T21:07:19.217Z,6.40
2018-02-22T21:09:45.199Z,6.93
2018-02-22T21:12:11.940Z,6.57
2018-02-22T21:14:37.927Z,7.82
2018-02-22T21:17:03.734Z,6.10
2018-02-22T21:19:29.532Z,7.40
2018-02-22T21:21:55.431Z,6.40
2018-02-22T21:24:21.537Z,6.80
2018-02-22T21:26:47.522Z,7.35
2018-02-22T21:29:13.453Z,5.47
2018-02-22T21:31:39.453Z,5.80
2018-02-22T21:34:05.562Z,6.40
2018-02-22T21:36:31.555Z,5.70
2018-02-22T21:38:57.570Z,6.20
2018-02-22T21:41:23.395Z,6.55
2018-02-22T21:43:49.188Z,6.70
2018-02-22T21:46:15.258Z,5.23
2018-02-22T21:48:41.518Z,6.28
2018-02-22T21:51:07.759Z,5.95
2018-02-22T21:53:33.566Z,5.85
2018-02-22T21:55:59.415Z,7.30
2018-02-22T21:58:25.454Z,7.37
2018-02-22T22:00:51.492Z,6.78
2018-02-22T22:03:17.736Z,6.00
2018-02-22T22:05:43.995Z,6.70
2018-02-22T22:08:10.002Z,7.70
2018-02-22T22:10:36.164Z,7.12
2018-02-22T22:13:02.091Z,6.20
2018-02-22T22:15:28.107Z,5.83
2018-02-22T22:17:54.539Z,6.82
2018-02-22T22:20:20.552Z,6.70
2018-02-22T22:22:47.476Z,5.87
2018-02-22T22:25:13.321Z,7.85
2018-02-22T22:27:39.472Z,7.17
2018-02-22T22:30:05.557Z,7.43
2018-02-22T22:32:31.988Z,6.60
2018-02-22T22:34:58.057Z,7.18
2018-02-22T22:37:24.391Z,6.87
2018-02-22T22:39:50.187Z,7.90
2018-02-22T22:42:16.483Z,6.50
2018-02-22T22:44:42.291Z,7.43
2018-02-22T22:47:08.282Z,7.90
2018-02-22T22:49:34.063Z,6.22
2018-02-22T22:51:59.872Z,6.90
2018-02-22T22:54:25.662Z,7.43
2018-02-22T22:56:51.480Z,7.50
2018-02-22T22:59:17.399Z,7.87
2018-02-22T23:01:43.212Z,7.23
2018-02-22T23:04:09.115Z,6.90
2018-02-22T23:06:34.898Z,7.07
2018-02-22T23:09:00.693Z,6.47
2018-02-22T23:11:26.477Z,7.57
2018-02-22T23:13:52.270Z,8.80
2018-02-22T23:16:18.979Z,7.17
2018-02-22T23:18:44.787Z,43.08
2018-02-22T23:21:10.815Z,148.73
2018-02-22T23:23:36.594Z,34.70
2018-02-22T23:26:02.552Z,28.23
2018-02-22T23:28:28.524Z,17.77
2018-02-22T23:30:54.458Z,11.57
2018-02-22T23:33:21.926Z,12.10
2018-02-22T23:35:47.849Z,8.93
2018-02-22T23:38:13.667Z,8.23
2018-02-22T23:40:44.822Z,7.40
2018-02-22T23:43:10.628Z,6.25
2018-02-22T23:45:36.549Z,5.67
2018-02-22T23:48:02.687Z,7.93
2018-02-22T23:50:28.612Z,5.57
2018-02-22T23:52:54.438Z,8.03
2018-02-22T23:55:20.635Z,6.77
2018-02-22T23:57:46.415Z,6.87
